sensor_id;sensor_type;location;lat;lon;timestamp;P1;durP1;ratioP1;P2;durP2;ratioP2
61460;SDS011;47325;50.506;4.472;2023-04-01T00:00:36;2.20;;;0.80;;
61460;SDS011;47325;50.506;4.472;2023-04-01T00:06:20;4.20;;;1.10;;
61460;SDS011;47325;50.506;4.472;2023-04-01T00:12:04;4.30;;;0.70;;
61460;SDS011;47325;50.506;4.472;2023-04-01T00:17:48;2.70;;;0.90;;
61460;SDS011;47325;50.506;4.472;2023-04-01T00:23:32;3.10;;;0.80;;
61460;SDS011;47325;50.506;4.472;2023-04-01T00:29:16;3.40;;;0.70;;
61460;SDS011;47325;50.506;4.472;2023-04-01T00:35:00;3.50;;;0.70;;
61460;SDS011;47325;50.506;4.472;2023-04-01T00:40:45;2.90;;;0.80;;
61460;SDS011;47325;50.506;4.472;2023-04-01T00:46:30;3.70;;;0.70;;
61460;SDS011;47325;50.506;4.472;2023-04-01T00:52:15;3.90;;;1.20;;
61460;SDS011;47325;50.506;4.472;2023-04-01T00:58:01;3.00;;;0.80;;
61460;SDS011;47325;50.506;4.472;2023-04-01T01:03:45;3.10;;;0.80;;
61460;SDS011;47325;50.506;4.472;2023-04-01T01:09:30;3.70;;;0.80;;
61460;SDS011;47325;50.506;4.472;2023-04-01T01:15:20;1.90;;;0.70;;
61460;SDS011;47325;50.506;4.472;2023-04-01T01:21:14;1.90;;;0.70;;
61460;SDS011;47325;50.506;4.472;2023-04-01T01:27:03;1.70;;;0.60;;
61460;SDS011;47325;50.506;4.472;2023-04-01T01:33:06;2.30;;;0.60;;
61460;SDS011;47325;50.506;4.472;2023-04-01T01:38:53;2.70;;;0.50;;
61460;SDS011;47325;50.506;4.472;2023-04-01T01:44:38;1.30;;;0.50;;
61460;SDS011;47325;50.506;4.472;2023-04-01T01:50:24;2.30;;;0.50;;
61460;SDS011;47325;50.506;4.472;2023-04-01T01:56:10;1.90;;;0.50;;
61460;SDS011;47325;50.506;4.472;2023-04-01T02:01:55;1.20;;;0.50;;
61460;SDS011;47325;50.506;4.472;2023-04-01T02:07:40;1.50;;;0.40;;
61460;SDS011;47325;50.506;4.472;2023-04-01T02:13:29;1.10;;;0.30;;
61460;SDS011;47325;50.506;4.472;2023-04-01T02:19:14;1.60;;;0.60;;
61460;SDS011;47325;50.506;4.472;2023-04-01T02:25:01;1.00;;;0.40;;
61460;SDS011;47325;50.506;4.472;2023-04-01T02:30:46;2.10;;;0.40;;
61460;SDS011;47325;50.506;4.472;2023-04-01T02:36:31;1.80;;;0.50;;
61460;SDS011;47325;50.506;4.472;2023-04-01T02:42:15;2.00;;;0.50;;
61460;SDS011;47325;50.506;4.472;2023-04-01T02:48:00;2.80;;;0.60;;
61460;SDS011;47325;50.506;4.472;2023-04-01T02:53:44;1.40;;;0.70;;
61460;SDS011;47325;50.506;4.472;2023-04-01T02:59:28;1.20;;;0.70;;
61460;SDS011;47325;50.506;4.472;2023-04-01T03:05:12;4.50;;;1.30;;
61460;SDS011;47325;50.506;4.472;2023-04-01T03:10:56;3.90;;;1.50;;
61460;SDS011;47325;50.506;4.472;2023-04-01T03:16:43;2.60;;;1.50;;
61460;SDS011;47325;50.506;4.472;2023-04-01T03:22:27;2.40;;;1.20;;
61460;SDS011;47325;50.506;4.472;2023-04-01T03:28:11;2.40;;;1.40;;
61460;SDS011;47325;50.506;4.472;2023-04-01T03:33:55;2.90;;;1.40;;
61460;SDS011;47325;50.506;4.472;2023-04-01T03:39:39;3.60;;;1.50;;
61460;SDS011;47325;50.506;4.472;2023-04-01T03:45:27;3.50;;;1.40;;
61460;SDS011;47325;50.506;4.472;2023-04-01T03:51:11;3.30;;;1.60;;
61460;SDS011;47325;50.506;4.472;2023-04-01T03:56:55;2.30;;;1.80;;
61460;SDS011;47325;50.506;4.472;2023-04-01T04:02:39;3.10;;;1.70;;
61460;SDS011;47325;50.506;4.472;2023-04-01T04:08:24;4.30;;;1.80;;
61460;SDS011;47325;50.506;4.472;2023-04-01T04:14:08;3.00;;;1.80;;
61460;SDS011;47325;50.506;4.472;2023-04-01T04:19:52;4.20;;;1.80;;
61460;SDS011;47325;50.506;4.472;2023-04-01T04:25:36;3.20;;;1.90;;
61460;SDS011;47325;50.506;4.472;2023-04-01T04:31:22;4.20;;;2.20;;
61460;SDS011;47325;50.506;4.472;2023-04-01T04:37:06;2.70;;;2.00;;
61460;SDS011;47325;50.506;4.472;2023-04-01T04:42:50;5.40;;;2.60;;
61460;SDS011;47325;50.506;4.472;2023-04-01T04:48:35;5.60;;;2.80;;
61460;SDS011;47325;50.506;4.472;2023-04-01T04:54:20;4.30;;;2.50;;
61460;SDS011;47325;50.506;4.472;2023-04-01T05:00:05;5.40;;;2.90;;
61460;SDS011;47325;50.506;4.472;2023-04-01T05:05:53;4.10;;;2.60;;
61460;SDS011;47325;50.506;4.472;2023-04-01T05:11:37;4.50;;;2.80;;
61460;SDS011;47325;50.506;4.472;2023-04-01T05:17:21;4.70;;;2.90;;
61460;SDS011;47325;50.506;4.472;2023-04-01T05:23:05;4.40;;;2.80;;
61460;SDS011;47325;50.506;4.472;2023-04-01T05:28:49;4.30;;;2.60;;
61460;SDS011;47325;50.506;4.472;2023-04-01T05:34:34;4.40;;;2.40;;
61460;SDS011;47325;50.506;4.472;2023-04-01T05:40:18;3.40;;;2.50;;
61460;SDS011;47325;50.506;4.472;2023-04-01T05:46:02;5.00;;;2.50;;
61460;SDS011;47325;50.506;4.472;2023-04-01T05:51:46;3.60;;;2.10;;
61460;SDS011;47325;50.506;4.472;2023-04-01T05:57:31;3.90;;;2.60;;
61460;SDS011;47325;50.506;4.472;2023-04-01T06:03:15;4.60;;;2.80;;
61460;SDS011;47325;50.506;4.472;2023-04-01T06:09:04;6.60;;;3.30;;
61460;SDS011;47325;50.506;4.472;2023-04-01T06:14:50;4.20;;;3.00;;
61460;SDS011;47325;50.506;4.472;2023-04-01T06:20:39;4.70;;;3.00;;
61460;SDS011;47325;50.506;4.472;2023-04-01T06:26:29;5.80;;;3.40;;
61460;SDS011;47325;50.506;4.472;2023-04-01T06:32:20;4.10;;;3.40;;
61460;SDS011;47325;50.506;4.472;2023-04-01T06:38:15;5.40;;;3.60;;
61460;SDS011;47325;50.506;4.472;2023-04-01T06:44:04;5.70;;;3.90;;
61460;SDS011;47325;50.506;4.472;2023-04-01T06:49:52;5.20;;;4.00;;
61460;SDS011;47325;50.506;4.472;2023-04-01T06:55:41;5.90;;;3.60;;
61460;SDS011;47325;50.506;4.472;2023-04-01T07:01:28;4.50;;;3.20;;
61460;SDS011;47325;50.506;4.472;2023-04-01T07:07:14;4.70;;;3.40;;
61460;SDS011;47325;50.506;4.472;2023-04-01T07:13:00;3.70;;;3.00;;
61460;SDS011;47325;50.506;4.472;2023-04-01T07:18:47;4.20;;;2.90;;
61460;SDS011;47325;50.506;4.472;2023-04-01T07:24:33;3.60;;;2.80;;
61460;SDS011;47325;50.506;4.472;2023-04-01T07:30:19;4.60;;;2.60;;
61460;SDS011;47325;50.506;4.472;2023-04-01T07:36:05;3.70;;;2.40;;
61460;SDS011;47325;50.506;4.472;2023-04-01T07:41:55;4.50;;;2.30;;
61460;SDS011;47325;50.506;4.472;2023-04-01T07:47:53;4.00;;;2.60;;
61460;SDS011;47325;50.506;4.472;2023-04-01T07:53:41;3.60;;;2.70;;
61460;SDS011;47325;50.506;4.472;2023-04-01T07:59:29;3.20;;;2.70;;
61460;SDS011;47325;50.506;4.472;2023-04-01T08:05:19;3.20;;;2.40;;
61460;SDS011;47325;50.506;4.472;2023-04-01T08:11:10;4.00;;;2.30;;
61460;SDS011;47325;50.506;4.472;2023-04-01T08:16:57;3.00;;;2.30;;
61460;SDS011;47325;50.506;4.472;2023-04-01T08:22:47;3.40;;;2.50;;
61460;SDS011;47325;50.506;4.472;2023-04-01T08:28:33;2.60;;;2.40;;
61460;SDS011;47325;50.506;4.472;2023-04-01T08:34:21;3.50;;;2.20;;
61460;SDS011;47325;50.506;4.472;2023-04-01T08:40:12;3.90;;;2.00;;
61460;SDS011;47325;50.506;4.472;2023-04-01T08:46:01;2.50;;;2.20;;
61460;SDS011;47325;50.506;4.472;2023-04-01T08:51:57;2.80;;;2.50;;
61460;SDS011;47325;50.506;4.472;2023-04-01T08:57:48;3.60;;;2.80;;
61460;SDS011;47325;50.506;4.472;2023-04-01T09:27:25;2.10;;;1.50;;
61460;SDS011;47325;50.506;4.472;2023-04-01T09:39:11;2.00;;;1.10;;
61460;SDS011;47325;50.506;4.472;2023-04-01T09:44:57;1.40;;;1.10;;
61460;SDS011;47325;50.506;4.472;2023-04-01T09:50:43;1.20;;;0.90;;
61460;SDS011;47325;50.506;4.472;2023-04-01T09:56:44;1.10;;;1.00;;
61460;SDS011;47325;50.506;4.472;2023-04-01T10:08:36;1.20;;;0.90;;
61460;SDS011;47325;50.506;4.472;2023-04-01T10:38:46;1.50;;;0.90;;
61460;SDS011;47325;50.506;4.472;2023-04-01T11:14:35;1.30;;;1.00;;
61460;SDS011;47325;50.506;4.472;2023-04-01T11:20:45;1.30;;;1.10;;
61460;SDS011;47325;50.506;4.472;2023-04-01T11:26:36;1.30;;;1.10;;
61460;SDS011;47325;50.506;4.472;2023-04-01T11:32:28;1.20;;;1.10;;
61460;SDS011;47325;50.506;4.472;2023-04-01T11:38:19;1.30;;;1.00;;
61460;SDS011;47325;50.506;4.472;2023-04-01T11:50:10;1.60;;;1.10;;
61460;SDS011;47325;50.506;4.472;2023-04-01T11:55:58;1.20;;;1.00;;
61460;SDS011;47325;50.506;4.472;2023-04-01T12:13:42;1.60;;;1.10;;
61460;SDS011;47325;50.506;4.472;2023-04-01T12:19:31;1.20;;;1.00;;
61460;SDS011;47325;50.506;4.472;2023-04-01T12:25:21;1.10;;;1.00;;
61460;SDS011;47325;50.506;4.472;2023-04-01T12:31:09;1.00;;;0.90;;
61460;SDS011;47325;50.506;4.472;2023-04-01T12:37:02;1.50;;;0.90;;
61460;SDS011;47325;50.506;4.472;2023-04-01T12:42:55;1.10;;;0.80;;
61460;SDS011;47325;50.506;4.472;2023-04-01T13:00:44;0.70;;;0.70;;
61460;SDS011;47325;50.506;4.472;2023-04-01T13:12:34;0.90;;;0.70;;
61460;SDS011;47325;50.506;4.472;2023-04-01T13:18:24;0.80;;;0.80;;
61460;SDS011;47325;50.506;4.472;2023-04-01T13:24:15;1.00;;;0.60;;
61460;SDS011;47325;50.506;4.472;2023-04-01T13:30:16;0.80;;;0.70;;
61460;SDS011;47325;50.506;4.472;2023-04-01T13:36:03;1.10;;;0.80;;
61460;SDS011;47325;50.506;4.472;2023-04-01T13:41:55;0.70;;;0.60;;
61460;SDS011;47325;50.506;4.472;2023-04-01T13:53:49;0.80;;;0.70;;
61460;SDS011;47325;50.506;4.472;2023-04-01T13:59:42;1.00;;;0.70;;
61460;SDS011;47325;50.506;4.472;2023-04-01T14:05:35;1.60;;;0.70;;
61460;SDS011;47325;50.506;4.472;2023-04-01T14:11:27;1.30;;;0.90;;
61460;SDS011;47325;50.506;4.472;2023-04-01T14:17:18;1.60;;;1.00;;
61460;SDS011;47325;50.506;4.472;2023-04-01T14:23:12;1.70;;;1.20;;
61460;SDS011;47325;50.506;4.472;2023-04-01T14:29:01;1.10;;;1.00;;
61460;SDS011;47325;50.506;4.472;2023-04-01T14:40:51;2.10;;;1.40;;
61460;SDS011;47325;50.506;4.472;2023-04-01T14:52:36;1.00;;;0.90;;
61460;SDS011;47325;50.506;4.472;2023-04-01T14:58:23;1.70;;;1.10;;
61460;SDS011;47325;50.506;4.472;2023-04-01T15:04:13;1.20;;;0.90;;
61460;SDS011;47325;50.506;4.472;2023-04-01T15:10:01;0.90;;;0.80;;
61460;SDS011;47325;50.506;4.472;2023-04-01T15:15:57;1.30;;;0.80;;
61460;SDS011;47325;50.506;4.472;2023-04-01T15:21:54;1.30;;;1.00;;
61460;SDS011;47325;50.506;4.472;2023-04-01T15:27:42;1.20;;;0.70;;
61460;SDS011;47325;50.506;4.472;2023-04-01T15:39:36;1.20;;;0.60;;
61460;SDS011;47325;50.506;4.472;2023-04-01T15:45:29;1.00;;;0.60;;
61460;SDS011;47325;50.506;4.472;2023-04-01T15:51:18;1.80;;;0.60;;
61460;SDS011;47325;50.506;4.472;2023-04-01T15:57:12;1.20;;;0.80;;
61460;SDS011;47325;50.506;4.472;2023-04-01T16:09:01;1.50;;;0.40;;
61460;SDS011;47325;50.506;4.472;2023-04-01T16:14:50;0.50;;;0.50;;
61460;SDS011;47325;50.506;4.472;2023-04-01T16:20:45;0.80;;;0.50;;
61460;SDS011;47325;50.506;4.472;2023-04-01T16:26:34;1.30;;;0.60;;
61460;SDS011;47325;50.506;4.472;2023-04-01T16:32:27;0.70;;;0.50;;
61460;SDS011;47325;50.506;4.472;2023-04-01T16:38:16;1.20;;;0.60;;
61460;SDS011;47325;50.506;4.472;2023-04-01T16:44:13;0.60;;;0.50;;
61460;SDS011;47325;50.506;4.472;2023-04-01T16:50:05;1.30;;;0.50;;
61460;SDS011;47325;50.506;4.472;2023-04-01T16:55:51;0.80;;;0.50;;
61460;SDS011;47325;50.506;4.472;2023-04-01T17:01:40;1.10;;;0.60;;
61460;SDS011;47325;50.506;4.472;2023-04-01T17:07:28;0.80;;;0.60;;
61460;SDS011;47325;50.506;4.472;2023-04-01T17:13:22;0.80;;;0.60;;
61460;SDS011;47325;50.506;4.472;2023-04-01T17:19:10;1.20;;;0.60;;
61460;SDS011;47325;50.506;4.472;2023-04-01T17:25:02;0.90;;;0.60;;
61460;SDS011;47325;50.506;4.472;2023-04-01T17:30:50;1.20;;;0.60;;
61460;SDS011;47325;50.506;4.472;2023-04-01T17:36:41;0.90;;;0.70;;
61460;SDS011;47325;50.506;4.472;2023-04-01T17:42:31;1.20;;;0.70;;
61460;SDS011;47325;50.506;4.472;2023-04-01T17:48:23;0.80;;;0.60;;
61460;SDS011;47325;50.506;4.472;2023-04-01T17:54:11;0.90;;;0.60;;
61460;SDS011;47325;50.506;4.472;2023-04-01T17:59:59;1.30;;;0.60;;
61460;SDS011;47325;50.506;4.472;2023-04-01T18:05:50;1.40;;;0.70;;
61460;SDS011;47325;50.506;4.472;2023-04-01T18:11:39;1.30;;;0.60;;
61460;SDS011;47325;50.506;4.472;2023-04-01T18:17:30;0.80;;;0.60;;
61460;SDS011;47325;50.506;4.472;2023-04-01T18:23:19;1.00;;;0.70;;
61460;SDS011;47325;50.506;4.472;2023-04-01T18:29:11;1.60;;;0.60;;
61460;SDS011;47325;50.506;4.472;2023-04-01T18:34:57;1.10;;;0.80;;
61460;SDS011;47325;50.506;4.472;2023-04-01T18:40:46;1.60;;;0.80;;
61460;SDS011;47325;50.506;4.472;2023-04-01T18:46:34;1.00;;;0.70;;
61460;SDS011;47325;50.506;4.472;2023-04-01T18:52:23;1.90;;;0.90;;
61460;SDS011;47325;50.506;4.472;2023-04-01T18:58:11;1.60;;;0.70;;
61460;SDS011;47325;50.506;4.472;2023-04-01T19:03:58;1.40;;;0.90;;
61460;SDS011;47325;50.506;4.472;2023-04-01T19:09:47;2.20;;;1.10;;
61460;SDS011;47325;50.506;4.472;2023-04-01T19:15:34;1.00;;;0.90;;
61460;SDS011;47325;50.506;4.472;2023-04-01T19:21:25;1.80;;;1.10;;
61460;SDS011;47325;50.506;4.472;2023-04-01T19:27:13;1.60;;;1.00;;
61460;SDS011;47325;50.506;4.472;2023-04-01T19:33:00;2.70;;;1.00;;
61460;SDS011;47325;50.506;4.472;2023-04-01T19:38:53;2.50;;;1.10;;
61460;SDS011;47325;50.506;4.472;2023-04-01T19:44:45;1.50;;;1.10;;
61460;SDS011;47325;50.506;4.472;2023-04-01T19:50:34;2.20;;;1.30;;
61460;SDS011;47325;50.506;4.472;2023-04-01T19:56:22;1.80;;;1.40;;
61460;SDS011;47325;50.506;4.472;2023-04-01T20:02:14;1.50;;;1.10;;
61460;SDS011;47325;50.506;4.472;2023-04-01T20:07:58;1.50;;;1.10;;
61460;SDS011;47325;50.506;4.472;2023-04-01T20:13:46;2.00;;;1.30;;
61460;SDS011;47325;50.506;4.472;2023-04-01T20:19:33;2.10;;;1.40;;
61460;SDS011;47325;50.506;4.472;2023-04-01T20:25:19;2.10;;;1.60;;
61460;SDS011;47325;50.506;4.472;2023-04-01T20:31:08;3.40;;;1.90;;
61460;SDS011;47325;50.506;4.472;2023-04-01T20:37:06;3.30;;;1.90;;
61460;SDS011;47325;50.506;4.472;2023-04-01T20:42:57;3.20;;;2.30;;
61460;SDS011;47325;50.506;4.472;2023-04-01T20:48:57;3.30;;;2.10;;
61460;SDS011;47325;50.506;4.472;2023-04-01T21:00:45;2.80;;;2.00;;
61460;SDS011;47325;50.506;4.472;2023-04-01T21:06:39;2.60;;;1.90;;
61460;SDS011;47325;50.506;4.472;2023-04-01T21:12:30;2.70;;;2.00;;
61460;SDS011;47325;50.506;4.472;2023-04-01T21:18:22;2.90;;;2.10;;
61460;SDS011;47325;50.506;4.472;2023-04-01T21:24:26;2.50;;;2.00;;
61460;SDS011;47325;50.506;4.472;2023-04-01T21:30:04;3.20;;;2.40;;
61460;SDS011;47325;50.506;4.472;2023-04-01T21:35:53;4.20;;;2.40;;
61460;SDS011;47325;50.506;4.472;2023-04-01T21:41:47;4.40;;;2.50;;
61460;SDS011;47325;50.506;4.472;2023-04-01T21:53:44;4.00;;;2.60;;
61460;SDS011;47325;50.506;4.472;2023-04-01T22:05:32;3.70;;;2.60;;
61460;SDS011;47325;50.506;4.472;2023-04-01T22:11:22;5.20;;;3.20;;
61460;SDS011;47325;50.506;4.472;2023-04-01T22:17:08;4.00;;;3.20;;
61460;SDS011;47325;50.506;4.472;2023-04-01T22:22:59;5.10;;;3.00;;
61460;SDS011;47325;50.506;4.472;2023-04-01T22:28:46;4.50;;;3.30;;
61460;SDS011;47325;50.506;4.472;2023-04-01T22:34:34;5.00;;;3.50;;
61460;SDS011;47325;50.506;4.472;2023-04-01T22:40:25;5.70;;;4.00;;
61460;SDS011;47325;50.506;4.472;2023-04-01T22:46:20;6.40;;;3.90;;
61460;SDS011;47325;50.506;4.472;2023-04-01T22:52:09;6.20;;;4.00;;
61460;SDS011;47325;50.506;4.472;2023-04-01T22:57:57;5.60;;;4.00;;
61460;SDS011;47325;50.506;4.472;2023-04-01T23:03:43;6.60;;;4.40;;
61460;SDS011;47325;50.506;4.472;2023-04-01T23:09:30;5.10;;;4.00;;
61460;SDS011;47325;50.506;4.472;2023-04-01T23:15:15;7.30;;;4.50;;
61460;SDS011;47325;50.506;4.472;2023-04-01T23:21:05;6.80;;;4.50;;
61460;SDS011;47325;50.506;4.472;2023-04-01T23:26:52;6.50;;;4.20;;
61460;SDS011;47325;50.506;4.472;2023-04-01T23:32:39;5.60;;;3.80;;
61460;SDS011;47325;50.506;4.472;2023-04-01T23:38:25;5.20;;;4.00;;
61460;SDS011;47325;50.506;4.472;2023-04-01T23:44:11;5.60;;;4.00;;
61460;SDS011;47325;50.506;4.472;2023-04-01T23:49:57;5.40;;;3.90;;
61460;SDS011;47325;50.506;4.472;2023-04-01T23:55:46;4.50;;;3.60;;
